Time;durP1;ratioP1;P1;durP2;ratioP2;P2;SDS_P1;SDS_P2;PMS_P1;PMS_P2;Temp;Humidity;BMP_temperature;BMP_pressure;BME280_temperature;BME280_humidity;BME280_pressure;Samples;Min_cycle;Max_cycle;Signal;HPM_P1;HPM_P2
2023/07/01 00:01:17;;;;;;;14.4;9.5;;;;;;;;;;;;;
2023/07/01 00:03:43;;;;;;;15.1;9.3;;;;;;;;;;;;;
2023/07/01 00:06:08;;;;;;;13.1;8.9;;;;;;;;;;;;;
2023/07/01 00:08:34;;;;;;;13;9;;;;;;;;;;;;;
2023/07/01 00:10:59;;;;;;;15;9.8;;;;;;;;;;;;;
2023/07/01 00:13:25;;;;;;;13.1;8.9;;;;;;;;;;;;;
2023/07/01 00:15:50;;;;;;;14.3;9.8;;;;;;;;;;;;;
2023/07/01 00:18:16;;;;;;;11.5;8.8;;;;;;;;;;;;;
2023/07/01 00:20:41;;;;;;;15;10.4;;;;;;;;;;;;;
2023/07/01 00:23:07;;;;;;;12.7;9.8;;;;;;;;;;;;;
2023/07/01 00:25:32;;;;;;;15.1;10;;;;;;;;;;;;;
2023/07/01 00:27:58;;;;;;;14.9;10.4;;;;;;;;;;;;;
2023/07/01 00:30:23;;;;;;;14.9;10;;;;;;;;;;;;;
2023/07/01 00:32:48;;;;;;;13.3;9.4;;;;;;;;;;;;;
2023/07/01 00:35:14;;;;;;;14.9;9.8;;;;;;;;;;;;;
2023/07/01 00:37:40;;;;;;;13.3;8.6;;;;;;;;;;;;;
2023/07/01 00:40:05;;;;;;;14.5;9.6;;;;;;;;;;;;;
2023/07/01 00:42:32;;;;;;;13.3;9.1;;;;;;;;;;;;;
2023/07/01 00:44:57;;;;;;;13;9;;;;;;;;;;;;;
2023/07/01 00:47:23;;;;;;;15;9.3;;;;;;;;;;;;;
2023/07/01 00:49:48;;;;;;;12.3;8.9;;;;;;;;;;;;;
2023/07/01 00:52:15;;;;;;;13.2;9.2;;;;;;;;;;;;;
2023/07/01 00:54:40;;;;;;;14;10.1;;;;;;;;;;;;;
2023/07/01 00:57:06;;;;;;;13;9.5;;;;;;;;;;;;;
2023/07/01 00:59:32;;;;;;;13;9.1;;;;;;;;;;;;;
2023/07/01 01:01:56;;;;;;;14.2;9.6;;;;;;;;;;;;;
2023/07/01 01:04:22;;;;;;;13.3;9.3;;;;;;;;;;;;;
2023/07/01 01:06:46;;;;;;;12.8;8.9;;;;;;;;;;;;;
2023/07/01 01:09:11;;;;;;;12.6;9;;;;;;;;;;;;;
2023/07/01 01:11:36;;;;;;;12.3;8.3;;;;;;;;;;;;;
2023/07/01 01:14:02;;;;;;;10.9;7.8;;;;;;;;;;;;;
2023/07/01 01:16:27;;;;;;;11.6;7.9;;;;;;;;;;;;;
2023/07/01 01:18:52;;;;;;;11.3;8.5;;;;;;;;;;;;;
2023/07/01 01:21:17;;;;;;;11.6;8.1;;;;;;;;;;;;;
2023/07/01 01:23:42;;;;;;;14.4;10.7;;;;;;;;;;;;;
2023/07/01 01:26:07;;;;;;;17.4;11.1;;;;;;;;;;;;;
2023/07/01 01:28:32;;;;;;;15.8;10.6;;;;;;;;;;;;;
2023/07/01 01:30:58;;;;;;;16.5;11.8;;;;;;;;;;;;;
2023/07/01 01:33:23;;;;;;;17;12.3;;;;;;;;;;;;;
2023/07/01 01:35:48;;;;;;;16.4;11.4;;;;;;;;;;;;;
2023/07/01 01:38:15;;;;;;;17;11.9;;;;;;;;;;;;;
2023/07/01 01:40:41;;;;;;;20.1;13.3;;;;;;;;;;;;;
2023/07/01 01:43:06;;;;;;;19.5;13.8;;;;;;;;;;;;;
2023/07/01 01:45:31;;;;;;;20.6;13.7;;;;;;;;;;;;;
2023/07/01 01:47:58;;;;;;;19.9;13.3;;;;;;;;;;;;;
2023/07/01 01:50:23;;;;;;;19.4;13.4;;;;;;;;;;;;;
2023/07/01 01:52:48;;;;;;;20.7;14;;;;;;;;;;;;;
2023/07/01 01:55:13;;;;;;;21.7;13.2;;;;;;;;;;;;;
2023/07/01 01:57:39;;;;;;;18.9;13.3;;;;;;;;;;;;;
2023/07/01 02:00:08;;;;;;;18.8;13.3;;;;;;;;;;;;;
2023/07/01 02:02:31;;;;;;;18.2;12.2;;;;;;;;;;;;;
2023/07/01 02:04:58;;;;;;;18.6;12.8;;;;;;;;;;;;;
2023/07/01 02:07:22;;;;;;;20.2;13.5;;;;;;;;;;;;;
2023/07/01 02:09:47;;;;;;;21.2;14.1;;;;;;;;;;;;;
2023/07/01 02:12:13;;;;;;;19;14.2;;;;;;;;;;;;;
2023/07/01 02:14:38;;;;;;;20.1;14.4;;;;;;;;;;;;;
2023/07/01 02:17:03;;;;;;;20.6;14.1;;;;;;;;;;;;;
2023/07/01 02:19:28;;;;;;;21.3;14.3;;;;;;;;;;;;;
2023/07/01 02:21:54;;;;;;;19.7;13.9;;;;;;;;;;;;;
2023/07/01 02:24:19;;;;;;;23.2;15.7;;;;;;;;;;;;;
2023/07/01 02:26:45;;;;;;;21.2;14.2;;;;;;;;;;;;;
2023/07/01 02:29:10;;;;;;;19.8;13.5;;;;;;;;;;;;;
2023/07/01 02:31:35;;;;;;;18.5;12.5;;;;;;;;;;;;;
2023/07/01 02:34:02;;;;;;;17.5;12;;;;;;;;;;;;;
2023/07/01 02:36:26;;;;;;;17.2;11.1;;;;;;;;;;;;;
2023/07/01 02:38:53;;;;;;;16.5;11;;;;;;;;;;;;;
2023/07/01 02:41:18;;;;;;;15.8;10.5;;;;;;;;;;;;;
2023/07/01 02:43:44;;;;;;;11.5;8.6;;;;;;;;;;;;;
2023/07/01 02:46:09;;;;;;;11.5;8.1;;;;;;;;;;;;;
2023/07/01 02:48:34;;;;;;;12.2;8.5;;;;;;;;;;;;;
2023/07/01 02:50:59;;;;;;;10.1;7.9;;;;;;;;;;;;;
2023/07/01 02:53:24;;;;;;;11.1;8.1;;;;;;;;;;;;;
2023/07/01 02:55:49;;;;;;;12.6;8.3;;;;;;;;;;;;;
2023/07/01 02:58:15;;;;;;;9.3;7.1;;;;;;;;;;;;;
2023/07/01 03:00:40;;;;;;;8.8;6.5;;;;;;;;;;;;;
2023/07/01 03:03:07;;;;;;;9.1;6.9;;;;;;;;;;;;;
2023/07/01 03:05:30;;;;;;;10.1;7.3;;;;;;;;;;;;;
2023/07/01 03:07:56;;;;;;;10.6;7.5;;;;;;;;;;;;;
2023/07/01 03:10:21;;;;;;;10.5;7.2;;;;;;;;;;;;;
2023/07/01 03:12:47;;;;;;;10.3;8.1;;;;;;;;;;;;;
2023/07/01 03:15:12;;;;;;;11.6;7.7;;;;;;;;;;;;;
2023/07/01 03:17:40;;;;;;;11;8.1;;;;;;;;;;;;;
2023/07/01 03:20:06;;;;;;;11.6;7.5;;;;;;;;;;;;;
2023/07/01 03:22:31;;;;;;;8.8;7;;;;;;;;;;;;;
2023/07/01 03:24:57;;;;;;;8.6;6.5;;;;;;;;;;;;;
2023/07/01 03:27:23;;;;;;;10;6.5;;;;;;;;;;;;;
2023/07/01 03:29:48;;;;;;;7.4;5.5;;;;;;;;;;;;;
2023/07/01 03:32:13;;;;;;;6.9;5.2;;;;;;;;;;;;;
2023/07/01 03:34:39;;;;;;;5.1;3.8;;;;;;;;;;;;;
2023/07/01 03:37:04;;;;;;;6.1;4.1;;;;;;;;;;;;;
2023/07/01 03:39:29;;;;;;;4.3;3.3;;;;;;;;;;;;;
2023/07/01 03:41:55;;;;;;;3.4;2.7;;;;;;;;;;;;;
2023/07/01 03:44:20;;;;;;;3.4;2.4;;;;;;;;;;;;;
2023/07/01 03:46:47;;;;;;;2.8;2.3;;;;;;;;;;;;;
2023/07/01 03:49:11;;;;;;;2.5;2;;;;;;;;;;;;;
2023/07/01 03:51:38;;;;;;;2.5;1.9;;;;;;;;;;;;;
2023/07/01 03:54:06;;;;;;;1.7;1.6;;;;;;;;;;;;;
2023/07/01 03:56:31;;;;;;;1.8;1.7;;;;;;;;;;;;;
2023/07/01 03:58:56;;;;;;;2;1.8;;;;;;;;;;;;;
2023/07/01 04:02:35;;;;;;;1.9;1.7;;;;;;;16.2;100;933.8134;;;;
2023/07/01 04:05:09;;;;;;;1.9;1.7;;;;;;;16.24;99.79883;933.8474;;;;
2023/07/01 04:07:30;;;;;;;1.9;1.8;;;;;;;16.26;99.36426;933.913;;;;
2023/07/01 04:10:00;;;;;;;2.2;1.9;;;;;;;16.14;99.39453;933.9222;;;;
2023/07/01 04:12:25;;;;;;;2.5;1.9;;;;;;;16.07;99.66992;933.8784;;;;
2023/07/01 04:14:53;;;;;;;2.1;1.9;;;;;;;15.98;100;933.7939;;;;
2023/07/01 04:17:18;;;;;;;2.4;2.2;;;;;;;16.05;100;933.9416;;;;
2023/07/01 04:19:48;;;;;;;2.4;2;;;;;;;16.12;99.58789;933.9578;;;;
2023/07/01 04:22:13;;;;;;;2.5;2;;;;;;;16.05;99.08301;933.9152;;;;
2023/07/01 04:24:40;;;;;;;2.1;1.8;;;;;;;15.95;99.35156;933.9431;;;;
2023/07/01 04:27:08;;;;;;;1.7;1.6;;;;;;;15.9;99.01563;933.9721;;;;
2023/07/01 04:29:37;;;;;;;2.2;1.6;;;;;;;15.91;98.92578;933.9856;;;;
2023/07/01 04:32:04;;;;;;;1.7;1.6;;;;;;;15.95;99.05176;934.0009;;;;
2023/07/01 04:38:14;;;;;;;1.6;1.5;;;;;;;16.06;98.24316;934.0072;;;;
2023/07/01 04:40:44;;;;;;;1.7;1.5;;;;;;;16.01;99.3877;934.0031;;;;
2023/07/01 04:43:38;;;;;;;1.7;1.6;;;;;;;16.04;98.9541;934.0302;;;;
2023/07/01 04:46:03;;;;;;;1.7;1.6;;;;;;;16.02;98.94043;934.036;;;;
2023/07/01 04:48:28;;;;;;;1.9;1.7;;;;;;;16.09;98.20508;934.0066;;;;
2023/07/01 04:50:55;;;;;;;1.5;1.4;;;;;;;16.2;97.90527;934.002;;;;
2023/07/01 04:53:20;;;;;;;2.1;1.8;;;;;;;16.19;98.22754;934.0055;;;;
2023/07/01 04:55:48;;;;;;;2.3;1.6;;;;;;;16.22;98.22168;933.9377;;;;
2023/07/01 04:58:14;;;;;;;1.4;1.3;;;;;;;16.26;96.98242;934.0486;;;;
2023/07/01 05:00:42;;;;;;;2.1;1.9;;;;;;;16.23;98.40918;934.0292;;;;
2023/07/01 05:03:07;;;;;;;1.8;1.7;;;;;;;16.19;99.08105;934.0868;;;;
2023/07/01 05:05:47;;;;;;;2.6;1.8;;;;;;;16.19;98.56055;934.1453;;;;
2023/07/01 05:08:16;;;;;;;1.7;1.6;;;;;;;16.02;98.7998;934.228;;;;
2023/07/01 05:10:41;;;;;;;2.5;1.9;;;;;;;15.98;98.375;934.2059;;;;
2023/07/01 06:23:22;;;;;;;1.9;1.8;;;;;;;16.88;97.35938;934.318;;;;
2023/07/01 06:25:47;;;;;;;2.1;1.9;;;;;;;16.91;97.57617;934.3317;;;;
2023/07/01 06:28:15;;;;;;;4;2.1;;;;;;;16.99;96.69043;934.3309;;;;
2023/07/01 06:30:40;;;;;;;2.2;2;;;;;;;17.01;96.21973;934.3876;;;;
2023/07/01 06:33:10;;;;;;;3.6;2.4;;;;;;;16.99;96.29688;934.3847;;;;
2023/07/01 06:35:35;;;;;;;2.6;2.2;;;;;;;17.01;95.60742;934.3705;;;;
2023/07/01 06:38:00;;;;;;;2.4;2.2;;;;;;;17.1;92.57617;934.3997;;;;
2023/07/01 06:40:25;;;;;;;2.4;2.2;;;;;;;17.19;93.58105;934.3872;;;;
2023/07/01 06:42:54;;;;;;;2.9;2.3;;;;;;;17.22;94.91016;934.4004;;;;
2023/07/01 06:45:41;;;;;;;2.9;2.3;;;;;;;17.23;96.29004;934.4252;;;;
2023/07/01 06:48:06;;;;;;;2.5;2.3;;;;;;;17.2;97.09766;934.3547;;;;
2023/07/01 06:50:34;;;;;;;3.3;2.3;;;;;;;17.11;97.71289;934.3937;;;;
2023/07/01 06:52:58;;;;;;;2.5;2.2;;;;;;;17.17;97.02246;934.3633;;;;
2023/07/01 06:59:25;;;;;;;3.3;2.2;;;;;;;17.28;95.89648;934.4146;;;;
2023/07/01 07:01:47;;;;;;;2.5;2.2;;;;;;;17.39;94.89941;934.4046;;;;
2023/07/01 07:04:15;;;;;;;2.5;2.1;;;;;;;17.47;95.10449;934.428;;;;
2023/07/01 07:06:40;;;;;;;3;2.1;;;;;;;17.44;94.28418;934.4174;;;;
2023/07/01 07:09:07;;;;;;;3;1.8;;;;;;;17.44;92.69531;934.4464;;;;
2023/07/01 07:11:32;;;;;;;2.7;1.8;;;;;;;17.34;92.53516;934.4041;;;;
2023/07/01 07:13:59;;;;;;;2.4;2.2;;;;;;;17.45;94.20703;934.4783;;;;
2023/07/01 07:16:24;;;;;;;2.9;2;;;;;;;17.31;92.95703;934.4612;;;;
2023/07/01 07:19:22;;;;;;;2.6;2;;;;;;;17.33;93.79688;934.4606;;;;
2023/07/01 07:21:47;;;;;;;3;2.1;;;;;;;17.32;93.37598;934.4674;;;;
2023/07/01 07:24:16;;;;;;;2.4;2;;;;;;;17.08;93.52344;934.4667;;;;
2023/07/01 07:26:42;;;;;;;2.1;1.9;;;;;;;17.09;94.47363;934.4337;;;;
2023/07/01 07:29:06;;;;;;;2;1.7;;;;;;;17.13;94.7168;934.394;;;;
2023/07/01 07:31:32;;;;;;;2.3;2.1;;;;;;;17.3;93.0127;934.4607;;;;
2023/07/01 07:33:57;;;;;;;2.8;2;;;;;;;17.45;91.75781;934.4495;;;;
2023/07/01 07:36:23;;;;;;;2.2;2;;;;;;;17.41;90.91309;934.4478;;;;
2023/07/01 07:38:48;;;;;;;3.5;2.4;;;;;;;17.47;91.62207;934.4497;;;;
2023/07/01 07:41:20;;;;;;;2.3;1.9;;;;;;;17.64;90.625;934.3992;;;;
2023/07/01 07:43:49;;;;;;;2.5;2;;;;;;;17.77;93.1582;934.3337;;;;
2023/07/01 07:46:14;;;;;;;2.8;2.2;;;;;;;17.87;89.91699;934.3461;;;;
2023/07/01 07:48:44;;;;;;;2.1;1.9;;;;;;;18.17;91.08301;934.3353;;;;
2023/07/01 07:51:09;;;;;;;2.4;1.9;;;;;;;18.28;89.19824;934.3411;;;;
2023/07/01 07:53:38;;;;;;;3.6;2.1;;;;;;;18.4;87.51465;934.3627;;;;
2023/07/01 07:56:03;;;;;;;2.8;1.9;;;;;;;18.57;87.7002;934.3423;;;;
2023/07/01 07:58:30;;;;;;;3.2;2.4;;;;;;;18.74;86.20801;934.3044;;;;
2023/07/01 08:00:55;;;;;;;2.5;1.9;;;;;;;18.85;85.31152;934.29;;;;
2023/07/01 08:03:20;;;;;;;1.8;1.7;;;;;;;;;;;;;
2023/07/01 08:05:45;;;;;;;2.4;1.8;;;;;;;;;;;;;
2023/07/01 08:08:11;;;;;;;1.9;1.8;;;;;;;;;;;;;
2023/07/01 08:10:35;;;;;;;2;1.8;;;;;;;;;;;;;
2023/07/01 08:13:02;;;;;;;4;2;;;;;;;;;;;;;
2023/07/01 08:15:27;;;;;;;2.1;1.9;;;;;;;;;;;;;
2023/07/01 08:17:53;;;;;;;2.2;1.6;;;;;;;;;;;;;
2023/07/01 08:20:18;;;;;;;3.9;2.2;;;;;;;;;;;;;
2023/07/01 08:22:44;;;;;;;2.9;2.3;;;;;;;;;;;;;
2023/07/01 08:25:09;;;;;;;2;1.6;;;;;;;;;;;;;
2023/07/01 08:27:34;;;;;;;2.3;1.8;;;;;;;;;;;;;
2023/07/01 08:29:59;;;;;;;4.1;2;;;;;;;;;;;;;
2023/07/01 08:32:25;;;;;;;2.7;1.9;;;;;;;;;;;;;
2023/07/01 08:34:50;;;;;;;3;1.9;;;;;;;;;;;;;
2023/07/01 08:37:15;;;;;;;2.8;2.2;;;;;;;;;;;;;
2023/07/01 08:39:40;;;;;;;2.1;1.8;;;;;;;;;;;;;
2023/07/01 08:42:06;;;;;;;3.6;2.1;;;;;;;;;;;;;
2023/07/01 08:44:31;;;;;;;2.3;2.1;;;;;;;;;;;;;
2023/07/01 08:46:56;;;;;;;2.8;2.2;;;;;;;;;;;;;
2023/07/01 08:49:21;;;;;;;2.5;2.2;;;;;;;;;;;;;
2023/07/01 08:51:48;;;;;;;2.6;2.2;;;;;;;;;;;;;
2023/07/01 08:54:13;;;;;;;2.4;2.1;;;;;;;;;;;;;
2023/07/01 08:56:40;;;;;;;3.3;2.5;;;;;;;;;;;;;
2023/07/01 08:59:05;;;;;;;2.8;2.2;;;;;;;;;;;;;
2023/07/01 09:01:30;;;;;;;2.9;2.1;;;;;;;;;;;;;
2023/07/01 09:03:55;;;;;;;2.7;2.2;;;;;;;;;;;;;
2023/07/01 09:06:22;;;;;;;3.1;2.2;;;;;;;;;;;;;
2023/07/01 09:08:46;;;;;;;3;2.3;;;;;;;;;;;;;
2023/07/01 09:11:12;;;;;;;3.1;2.3;;;;;;;;;;;;;
2023/07/01 09:13:37;;;;;;;2.1;1.8;;;;;;;;;;;;;
2023/07/01 09:16:04;;;;;;;2.7;2.4;;;;;;;;;;;;;
2023/07/01 09:18:29;;;;;;;3.2;2.4;;;;;;;;;;;;;
2023/07/01 09:20:54;;;;;;;2.4;2;;;;;;;;;;;;;
2023/07/01 09:23:19;;;;;;;2.7;2.1;;;;;;;;;;;;;
2023/07/01 09:25:45;;;;;;;2.9;2.3;;;;;;;;;;;;;
2023/07/01 09:28:10;;;;;;;3.1;2.3;;;;;;;;;;;;;
2023/07/01 09:30:36;;;;;;;2.6;2.4;;;;;;;;;;;;;
2023/07/01 09:33:01;;;;;;;3.5;2.2;;;;;;;;;;;;;
2023/07/01 09:35:28;;;;;;;2.8;2.1;;;;;;;;;;;;;
2023/07/01 09:37:54;;;;;;;4;2.1;;;;;;;;;;;;;
2023/07/01 09:40:19;;;;;;;2.8;2.4;;;;;;;;;;;;;
2023/07/01 09:42:44;;;;;;;3.5;2.2;;;;;;;;;;;;;
2023/07/01 09:45:11;;;;;;;2.3;2.1;;;;;;;;;;;;;
2023/07/01 09:47:36;;;;;;;2.7;2.2;;;;;;;;;;;;;
2023/07/01 09:50:01;;;;;;;3.2;2.1;;;;;;;;;;;;;
2023/07/01 09:52:26;;;;;;;3.2;2.2;;;;;;;;;;;;;
2023/07/01 09:54:51;;;;;;;2.3;2.1;;;;;;;;;;;;;
2023/07/01 09:57:17;;;;;;;5.1;2.2;;;;;;;;;;;;;
2023/07/01 09:59:42;;;;;;;3.4;2.4;;;;;;;;;;;;;
2023/07/01 10:02:07;;;;;;;2.6;2.4;;;;;;;;;;;;;
2023/07/01 10:04:32;;;;;;;2.8;2.1;;;;;;;;;;;;;
2023/07/01 10:06:57;;;;;;;2.8;2.2;;;;;;;;;;;;;
2023/07/01 10:09:23;;;;;;;2.8;2.5;;;;;;;;;;;;;
2023/07/01 10:11:49;;;;;;;6.7;3.1;;;;;;;;;;;;;
2023/07/01 10:14:14;;;;;;;3;2.4;;;;;;;;;;;;;
2023/07/01 10:16:39;;;;;;;2.3;2.1;;;;;;;;;;;;;
2023/07/01 10:19:04;;;;;;;3.4;2.1;;;;;;;;;;;;;
2023/07/01 10:21:29;;;;;;;2.6;2.1;;;;;;;;;;;;;
2023/07/01 10:23:54;;;;;;;3.1;2;;;;;;;;;;;;;
2023/07/01 10:26:20;;;;;;;3.1;2.1;;;;;;;;;;;;;
2023/07/01 10:28:45;;;;;;;3.2;2.1;;;;;;;;;;;;;
2023/07/01 10:31:11;;;;;;;3.2;2;;;;;;;;;;;;;
2023/07/01 10:33:35;;;;;;;2.4;1.9;;;;;;;;;;;;;
2023/07/01 10:36:01;;;;;;;2.7;1.9;;;;;;;;;;;;;
2023/07/01 10:38:26;;;;;;;2.8;1.9;;;;;;;;;;;;;
2023/07/01 10:40:51;;;;;;;2.1;1.9;;;;;;;;;;;;;
2023/07/01 10:43:16;;;;;;;4.8;2.3;;;;;;;;;;;;;
2023/07/01 10:45:41;;;;;;;2.8;1.7;;;;;;;;;;;;;
2023/07/01 10:48:06;;;;;;;2.6;1.9;;;;;;;;;;;;;
2023/07/01 10:50:33;;;;;;;3.5;1.9;;;;;;;;;;;;;
2023/07/01 10:52:58;;;;;;;2.6;1.8;;;;;;;;;;;;;
2023/07/01 10:55:23;;;;;;;2.5;1.7;;;;;;;;;;;;;
2023/07/01 10:57:48;;;;;;;2.7;1.9;;;;;;;;;;;;;
2023/07/01 11:00:13;;;;;;;3.3;1.9;;;;;;;;;;;;;
2023/07/01 11:02:38;;;;;;;2.1;1.7;;;;;;;;;;;;;
2023/07/01 11:05:03;;;;;;;2.4;1.7;;;;;;;;;;;;;
2023/07/01 11:07:29;;;;;;;2.4;1.7;;;;;;;;;;;;;
2023/07/01 11:09:54;;;;;;;3.6;2;;;;;;;;;;;;;
2023/07/01 11:12:19;;;;;;;2.3;1.8;;;;;;;;;;;;;
2023/07/01 11:14:46;;;;;;;2.3;1.8;;;;;;;;;;;;;
2023/07/01 11:17:12;;;;;;;2.3;1.7;;;;;;;;;;;;;
2023/07/01 11:19:39;;;;;;;3.2;1.8;;;;;;;;;;;;;
2023/07/01 11:22:04;;;;;;;2.5;2;;;;;;;;;;;;;
2023/07/01 11:24:29;;;;;;;3.2;1.9;;;;;;;;;;;;;
2023/07/01 11:26:54;;;;;;;1.9;1.7;;;;;;;;;;;;;
2023/07/01 11:29:20;;;;;;;3.6;2;;;;;;;;;;;;;
2023/07/01 11:31:45;;;;;;;4.3;2.1;;;;;;;;;;;;;
2023/07/01 11:34:14;;;;;;;2.9;1.8;;;;;;;;;;;;;
2023/07/01 11:36:36;;;;;;;2.3;2.1;;;;;;;;;;;;;
2023/07/01 11:39:01;;;;;;;3.8;2.4;;;;;;;;;;;;;
2023/07/01 11:41:26;;;;;;;2.9;2.1;;;;;;;;;;;;;
2023/07/01 11:43:52;;;;;;;2.5;2.1;;;;;;;;;;;;;
2023/07/01 11:46:17;;;;;;;3.5;1.9;;;;;;;;;;;;;
2023/07/01 11:48:42;;;;;;;2.9;2.1;;;;;;;;;;;;;
2023/07/01 11:51:07;;;;;;;2.5;1.8;;;;;;;;;;;;;
2023/07/01 11:53:33;;;;;;;3.3;2;;;;;;;;;;;;;
2023/07/01 11:55:58;;;;;;;5.4;2.7;;;;;;;;;;;;;
2023/07/01 11:58:24;;;;;;;3.4;1.9;;;;;;;;;;;;;
2023/07/01 12:00:49;;;;;;;3.6;2;;;;;;;;;;;;;
2023/07/01 12:03:14;;;;;;;2.4;2;;;;;;;;;;;;;
2023/07/01 12:05:40;;;;;;;3.5;2.2;;;;;;;;;;;;;
2023/07/01 12:08:06;;;;;;;3.1;2;;;;;;;;;;;;;
2023/07/01 12:10:32;;;;;;;3.7;2.3;;;;;;;;;;;;;
2023/07/01 12:13:00;;;;;;;3.1;2.4;;;;;;;;;;;;;
2023/07/01 12:15:26;;;;;;;4.8;2.3;;;;;;;;;;;;;
2023/07/01 12:17:52;;;;;;;5.1;2.3;;;;;;;;;;;;;
2023/07/01 12:20:16;;;;;;;3.7;2.3;;;;;;;;;;;;;
2023/07/01 12:22:41;;;;;;;2.4;1.8;;;;;;;;;;;;;
2023/07/01 12:25:08;;;;;;;3.2;2.1;;;;;;;;;;;;;
2023/07/01 12:27:33;;;;;;;2.1;1.9;;;;;;;;;;;;;
2023/07/01 12:29:58;;;;;;;2.4;2.2;;;;;;;;;;;;;
2023/07/01 12:32:24;;;;;;;3.1;2.3;;;;;;;;;;;;;
2023/07/01 12:34:48;;;;;;;2.6;1.9;;;;;;;;;;;;;
2023/07/01 12:37:13;;;;;;;4.2;2.2;;;;;;;;;;;;;
2023/07/01 12:39:40;;;;;;;3.1;2.2;;;;;;;;;;;;;
2023/07/01 12:42:05;;;;;;;3.3;2.3;;;;;;;;;;;;;
2023/07/01 12:44:30;;;;;;;3.6;2.1;;;;;;;;;;;;;
2023/07/01 12:46:55;;;;;;;2.9;1.9;;;;;;;;;;;;;
2023/07/01 12:49:21;;;;;;;4.4;2.2;;;;;;;;;;;;;
2023/07/01 12:51:46;;;;;;;2.7;2.1;;;;;;;;;;;;;
2023/07/01 12:54:12;;;;;;;2.2;2;;;;;;;;;;;;;
2023/07/01 12:56:37;;;;;;;3;2.2;;;;;;;;;;;;;
2023/07/01 12:59:02;;;;;;;3.5;2.3;;;;;;;;;;;;;
2023/07/01 13:01:27;;;;;;;2.3;2.1;;;;;;;;;;;;;
2023/07/01 13:03:52;;;;;;;2.9;2;;;;;;;;;;;;;
2023/07/01 13:06:18;;;;;;;2.8;2.1;;;;;;;;;;;;;
2023/07/01 13:08:43;;;;;;;3.8;2.1;;;;;;;;;;;;;
2023/07/01 13:11:10;;;;;;;5.8;2.7;;;;;;;;;;;;;
2023/07/01 13:13:35;;;;;;;2.5;1.9;;;;;;;;;;;;;
2023/07/01 13:16:00;;;;;;;2.5;1.9;;;;;;;;;;;;;
2023/07/01 13:18:25;;;;;;;2.6;2.2;;;;;;;;;;;;;
2023/07/01 13:20:50;;;;;;;3.7;2;;;;;;;;;;;;;
2023/07/01 13:23:15;;;;;;;2;1.8;;;;;;;;;;;;;
2023/07/01 13:25:41;;;;;;;3.1;2;;;;;;;;;;;;;
2023/07/01 13:28:06;;;;;;;4.4;2.2;;;;;;;;;;;;;
2023/07/01 13:30:35;;;;;;;3.4;2;;;;;;;;;;;;;
2023/07/01 13:32:58;;;;;;;2.3;2.1;;;;;;;;;;;;;
2023/07/01 13:35:24;;;;;;;2.7;2.4;;;;;;;;;;;;;
2023/07/01 13:37:49;;;;;;;3.5;2.1;;;;;;;;;;;;;
2023/07/01 13:40:15;;;;;;;3.3;2.2;;;;;;;;;;;;;
2023/07/01 13:42:39;;;;;;;3;2;;;;;;;;;;;;;
2023/07/01 13:45:05;;;;;;;2.2;2;;;;;;;;;;;;;
2023/07/01 13:47:29;;;;;;;2.9;2.2;;;;;;;;;;;;;
2023/07/01 13:49:54;;;;;;;2.7;2.1;;;;;;;;;;;;;
2023/07/01 13:52:20;;;;;;;4.4;2;;;;;;;;;;;;;
2023/07/01 13:54:45;;;;;;;3.3;2.4;;;;;;;;;;;;;
2023/07/01 13:57:10;;;;;;;2.6;2.2;;;;;;;;;;;;;
2023/07/01 13:59:36;;;;;;;2.6;2;;;;;;;;;;;;;
2023/07/01 14:02:01;;;;;;;2.3;2.1;;;;;;;;;;;;;
2023/07/01 14:04:26;;;;;;;2.3;2.1;;;;;;;;;;;;;
2023/07/01 14:06:51;;;;;;;3.9;1.9;;;;;;;;;;;;;
2023/07/01 14:09:18;;;;;;;2.2;2;;;;;;;;;;;;;
2023/07/01 14:11:43;;;;;;;2.8;2.3;;;;;;;;;;;;;
2023/07/01 14:14:08;;;;;;;2.7;2.2;;;;;;;;;;;;;
2023/07/01 14:16:33;;;;;;;2.8;2;;;;;;;;;;;;;
2023/07/01 14:19:00;;;;;;;4.3;2.8;;;;;;;;;;;;;
2023/07/01 14:21:29;;;;;;;2.5;2.2;;;;;;;;;;;;;
2023/07/01 14:23:55;;;;;;;2.3;1.9;;;;;;;;;;;;;
2023/07/01 14:26:19;;;;;;;4.8;3.4;;;;;;;;;;;;;
2023/07/01 14:28:41;;;;;;;2.1;1.7;;;;;;;;;;;;;
2023/07/01 14:31:07;;;;;;;3.4;2.5;;;;;;;;;;;;;
2023/07/01 14:33:31;;;;;;;4.1;2.8;;;;;;;;;;;;;
2023/07/01 14:35:56;;;;;;;3.3;2.1;;;;;;;;;;;;;
2023/07/01 14:38:21;;;;;;;2.1;1.9;;;;;;;;;;;;;
2023/07/01 14:40:46;;;;;;;8.4;6.8;;;;;;;;;;;;;
2023/07/01 14:43:11;;;;;;;3.1;2.5;;;;;;;;;;;;;
2023/07/01 14:45:36;;;;;;;2.2;1.9;;;;;;;;;;;;;
2023/07/01 14:48:01;;;;;;;2.6;1.9;;;;;;;;;;;;;
2023/07/01 14:50:26;;;;;;;2;1.8;;;;;;;;;;;;;
2023/07/01 14:52:52;;;;;;;4.3;2.5;;;;;;;;;;;;;
2023/07/01 14:55:17;;;;;;;3;2.3;;;;;;;;;;;;;
2023/07/01 14:57:42;;;;;;;3.2;2.1;;;;;;;;;;;;;
2023/07/01 15:00:09;;;;;;;2.3;2;;;;;;;;;;;;;
2023/07/01 15:02:34;;;;;;;2.2;2;;;;;;;;;;;;;
2023/07/01 15:04:59;;;;;;;2.7;2.1;;;;;;;;;;;;;
2023/07/01 15:07:24;;;;;;;3.1;2.1;;;;;;;;;;;;;
2023/07/01 15:09:49;;;;;;;2.1;1.9;;;;;;;;;;;;;
2023/07/01 15:12:14;;;;;;;3.1;2;;;;;;;;;;;;;
2023/07/01 15:14:40;;;;;;;3.2;2.1;;;;;;;;;;;;;
2023/07/01 15:17:05;;;;;;;2.5;2;;;;;;;;;;;;;
2023/07/01 15:19:31;;;;;;;3;2;;;;;;;;;;;;;
2023/07/01 15:21:56;;;;;;;2.4;2;;;;;;;;;;;;;
2023/07/01 15:24:23;;;;;;;3.1;2;;;;;;;;;;;;;
2023/07/01 15:26:48;;;;;;;2.1;1.9;;;;;;;;;;;;;
2023/07/01 15:29:14;;;;;;;1.9;1.7;;;;;;;;;;;;;
2023/07/01 15:31:39;;;;;;;2.9;1.9;;;;;;;;;;;;;
2023/07/01 15:34:05;;;;;;;3.3;1.9;;;;;;;;;;;;;
2023/07/01 15:36:30;;;;;;;2;1.8;;;;;;;;;;;;;
2023/07/01 15:38:55;;;;;;;2.5;2;;;;;;;;;;;;;
2023/07/01 15:41:20;;;;;;;2.4;2;;;;;;;;;;;;;
2023/07/01 15:43:47;;;;;;;2.2;1.8;;;;;;;;;;;;;
2023/07/01 15:46:13;;;;;;;16.8;7.7;;;;;;;;;;;;;
2023/07/01 15:48:38;;;;;;;10.9;7.9;;;;;;;;;;;;;
2023/07/01 15:51:03;;;;;;;17.4;11.5;;;;;;;;;;;;;
2023/07/01 15:53:31;;;;;;;27.7;20.5;;;;;;;;;;;;;
2023/07/01 15:55:56;;;;;;;19.2;14;;;;;;;;;;;;;
2023/07/01 15:58:21;;;;;;;11.5;8.8;;;;;;;;;;;;;
2023/07/01 16:00:46;;;;;;;26.3;20.1;;;;;;;;;;;;;
2023/07/01 16:03:11;;;;;;;4.4;3.2;;;;;;;;;;;;;
2023/07/01 16:05:36;;;;;;;2.2;2;;;;;;;;;;;;;
2023/07/01 16:08:03;;;;;;;2.7;1.9;;;;;;;;;;;;;
2023/07/01 16:10:28;;;;;;;2.5;1.9;;;;;;;;;;;;;
2023/07/01 16:12:54;;;;;;;3.4;2.2;;;;;;;;;;;;;
2023/07/01 16:15:19;;;;;;;3.5;2.9;;;;;;;;;;;;;
2023/07/01 16:17:44;;;;;;;3.5;2.4;;;;;;;;;;;;;
2023/07/01 16:20:09;;;;;;;7.5;4.4;;;;;;;;;;;;;
2023/07/01 16:22:34;;;;;;;6;3.7;;;;;;;;;;;;;
2023/07/01 16:24:59;;;;;;;3.8;3.5;;;;;;;;;;;;;
2023/07/01 16:27:25;;;;;;;3.8;3;;;;;;;;;;;;;
2023/07/01 16:29:51;;;;;;;3;2.4;;;;;;;;;;;;;
2023/07/01 16:32:16;;;;;;;2.3;2.1;;;;;;;;;;;;;
2023/07/01 16:34:42;;;;;;;3;2.2;;;;;;;;;;;;;
2023/07/01 16:37:07;;;;;;;3.5;2.5;;;;;;;;;;;;;
2023/07/01 16:39:32;;;;;;;4.6;3.4;;;;;;;;;;;;;
2023/07/01 16:41:59;;;;;;;3.5;2.9;;;;;;;;;;;;;
2023/07/01 16:44:24;;;;;;;3.6;2.6;;;;;;;;;;;;;
2023/07/01 16:46:49;;;;;;;3.9;2.7;;;;;;;;;;;;;
2023/07/01 16:49:16;;;;;;;3.7;2.5;;;;;;;;;;;;;
2023/07/01 16:51:40;;;;;;;6.4;2.8;;;;;;;;;;;;;
2023/07/01 16:54:06;;;;;;;2.4;2;;;;;;;;;;;;;
2023/07/01 16:56:31;;;;;;;4.3;2.3;;;;;;;;;;;;;
2023/07/01 16:58:57;;;;;;;4.3;2.4;;;;;;;;;;;;;
2023/07/01 17:01:23;;;;;;;3.3;2.5;;;;;;;;;;;;;
2023/07/01 17:03:50;;;;;;;3.3;2.1;;;;;;;;;;;;;
2023/07/01 17:06:15;;;;;;;3;2.6;;;;;;;;;;;;;
2023/07/01 17:08:40;;;;;;;2.5;2.3;;;;;;;;;;;;;
2023/07/01 17:11:06;;;;;;;2.5;2.3;;;;;;;;;;;;;
2023/07/01 17:13:32;;;;;;;3.5;2.5;;;;;;;;;;;;;
2023/07/01 17:15:57;;;;;;;2.7;2;;;;;;;;;;;;;
2023/07/01 17:18:22;;;;;;;2.7;2.2;;;;;;;;;;;;;
2023/07/01 17:20:47;;;;;;;2.3;2.1;;;;;;;;;;;;;
2023/07/01 17:23:12;;;;;;;3.3;2.3;;;;;;;;;;;;;
2023/07/01 17:25:37;;;;;;;3.3;2.4;;;;;;;;;;;;;
2023/07/01 17:28:03;;;;;;;2.7;2.2;;;;;;;;;;;;;
2023/07/01 17:30:29;;;;;;;3.4;2.8;;;;;;;;;;;;;
2023/07/01 17:32:54;;;;;;;4.4;2.5;;;;;;;;;;;;;
2023/07/01 17:35:21;;;;;;;2.5;2.3;;;;;;;;;;;;;
2023/07/01 17:37:45;;;;;;;3.2;2.7;;;;;;;;;;;;;
2023/07/01 17:40:15;;;;;;;3.5;2.5;;;;;;;;;;;;;
2023/07/01 17:42:43;;;;;;;3.5;2.9;;;;;;;;;;;;;
2023/07/01 17:45:08;;;;;;;4.6;3.4;;;;;;;;;;;;;
2023/07/01 17:47:36;;;;;;;3.3;2.8;;;;;;;;;;;;;
2023/07/01 17:50:01;;;;;;;4.2;3.2;;;;;;;;;;;;;
2023/07/01 17:52:28;;;;;;;4.5;3.1;;;;;;;;;;;;;
2023/07/01 17:54:53;;;;;;;3.6;3.1;;;;;;;;;;;;;
2023/07/01 17:57:19;;;;;;;5.4;3.4;;;;;;;;;;;;;
2023/07/01 17:59:43;;;;;;;4.3;3.1;;;;;;;;;;;;;
2023/07/01 18:02:09;;;;;;;5;3.6;;;;;;;;;;;;;
2023/07/01 18:04:34;;;;;;;4.6;3.3;;;;;;;;;;;;;
2023/07/01 18:07:01;;;;;;;5.8;3.2;;;;;;;;;;;;;
2023/07/01 18:09:26;;;;;;;5.4;3.6;;;;;;;;;;;;;
2023/07/01 18:11:53;;;;;;;4.1;3.3;;;;;;;;;;;;;
2023/07/01 18:14:18;;;;;;;5.8;3.5;;;;;;;;;;;;;
2023/07/01 18:16:44;;;;;;;6.3;4.1;;;;;;;;;;;;;
2023/07/01 18:19:09;;;;;;;5.1;3.7;;;;;;;;;;;;;
2023/07/01 18:21:35;;;;;;;5.3;3.9;;;;;;;;;;;;;
2023/07/01 18:24:00;;;;;;;6.5;5;;;;;;;;;;;;;
2023/07/01 18:26:26;;;;;;;6;4.2;;;;;;;;;;;;;
2023/07/01 18:28:51;;;;;;;4.8;3.8;;;;;;;;;;;;;
2023/07/01 18:31:17;;;;;;;5.4;3.9;;;;;;;;;;;;;
2023/07/01 18:33:42;;;;;;;6;4.2;;;;;;;;;;;;;
2023/07/01 18:36:08;;;;;;;6;4.1;;;;;;;;;;;;;
2023/07/01 18:38:33;;;;;;;6.7;4.2;;;;;;;;;;;;;
2023/07/01 18:41:00;;;;;;;5.7;4.7;;;;;;;;;;;;;
2023/07/01 18:43:24;;;;;;;7.3;4.9;;;;;;;;;;;;;
2023/07/01 18:45:51;;;;;;;6.6;4.4;;;;;;;;;;;;;
2023/07/01 18:48:31;;;;;;;4.9;4.2;;;;;;;;;;;;;
2023/07/01 18:50:42;;;;;;;6.5;4.8;;;;;;;;;;;;;
2023/07/01 18:53:08;;;;;;;6.1;4.4;;;;;;;;;;;;;
2023/07/01 18:55:32;;;;;;;6.1;4.9;;;;;;;;;;;;;
2023/07/01 18:58:00;;;;;;;6.1;4.6;;;;;;;;;;;;;
2023/07/01 19:00:25;;;;;;;9.4;4.1;;;;;;;;;;;;;
2023/07/01 19:02:50;;;;;;;6.8;4;;;;;;;;;;;;;
2023/07/01 19:05:15;;;;;;;4.8;3.6;;;;;;;;;;;;;
2023/07/01 19:07:41;;;;;;;3.9;2.8;;;;;;;;;;;;;
2023/07/01 19:10:06;;;;;;;5.3;3.6;;;;;;;;;;;;;
2023/07/01 19:12:33;;;;;;;6.1;3.5;;;;;;;;;;;;;
2023/07/01 19:14:58;;;;;;;4.3;3.6;;;;;;;;;;;;;
2023/07/01 19:17:25;;;;;;;6.3;4.4;;;;;;;;;;;;;
2023/07/01 19:19:50;;;;;;;8.3;4.4;;;;;;;;;;;;;
2023/07/01 19:22:36;;;;;;;6.5;4.1;;;;;;;;;;;;;
2023/07/01 19:25:09;;;;;;;6.7;4.6;;;;;;;;;;;;;
2023/07/01 19:30:00;;;;;;;7.1;4.7;;;;;;;20.53;74.85449;931.7445;;;;
2023/07/01 19:32:33;;;;;;;6.1;4.4;;;;;;;20.47;75.77832;931.7478;;;;
2023/07/01 19:35:12;;;;;;;6.2;4.4;;;;;;;20.43;76.53027;931.743;;;;
2023/07/01 19:37:42;;;;;;;5.5;4;;;;;;;20.32;76.28125;931.8036;;;;
2023/07/01 19:40:13;;;;;;;6.1;4.6;;;;;;;20.18;77.25977;931.918;;;;
2023/07/01 19:42:44;;;;;;;6.9;4.7;;;;;;;20.17;77.57129;931.9604;;;;
2023/07/01 19:45:18;;;;;;;8.6;4.6;;;;;;;20.14;78.25586;931.9719;;;;
2023/07/01 19:47:51;;;;;;;7.2;4.5;;;;;;;20.21;77.71973;932.0106;;;;
2023/07/01 19:50:19;;;;;;;6.3;4.6;;;;;;;20.25;77.44629;931.9949;;;;
2023/07/01 19:52:49;;;;;;;7.5;4.7;;;;;;;20.24;77.67773;932.0349;;;;
2023/07/01 19:55:15;;;;;;;6.3;4.7;;;;;;;20.17;77.82813;932.0881;;;;
2023/07/01 19:57:52;;;;;;;6.4;4.8;;;;;;;20.09;78.75977;932.0789;;;;
2023/07/01 20:00:25;;;;;;;6.8;4.6;;;;;;;20.03;80.31348;932.002;;;;
2023/07/01 20:02:56;;;;;;;5.5;4.5;;;;;;;20.04;79.79004;932.0168;;;;
2023/07/01 20:05:34;;;;;;;6.3;4.6;;;;;;;19.99;80.02539;932.0526;;;;
2023/07/01 20:08:10;;;;;;;6.7;5;;;;;;;19.95;79.61035;932.0603;;;;
2023/07/01 20:10:45;;;;;;;5.3;4.8;;;;;;;19.8;79.49121;932.1174;;;;
2023/07/01 20:13:24;;;;;;;7.8;5;;;;;;;19.72;78.91699;932.1216;;;;
2023/07/01 20:15:52;;;;;;;6;4.9;;;;;;;19.62;79.52637;932.1728;;;;
2023/07/01 20:18:35;;;;;;;5.7;4.6;;;;;;;19.78;78.96094;932.1471;;;;
2023/07/01 20:20:58;;;;;;;7.9;4.7;;;;;;;19.83;80.21875;932.2273;;;;
2023/07/01 20:23:37;;;;;;;6;4.7;;;;;;;19.88;79.51563;932.2173;;;;